KBFW

Details ICAO KBFW
Name SILVER BAY MUNI
Region United States
Timezone America/Chicago (UTC-6.0)
Plans Departing 0
Arriving 0
Stats Elevation 1,089 ft / 332 m (AMSL)
Location 47.248979° -91.415513°
Runways 1
Magnetic Variation 1.669° W
Sunrise 2017-12-18 13:49:23 UTC / 2017-12-18 07:49:23 Local
Sunset 2017-12-18 22:18:07 UTC / 2017-12-18 16:18:07 Local
Advertisement - Login to hide

Runways

ID Width Length Bearing (true) Bearing (mag) Surface Threshold Offset Overrun Length
07 75 ft / 23 m 3,194 ft / 974 m 72.32° 73.99° Asphalt 0 ft / 0 m 0 ft / 0 m
25 75 ft / 23 m 3,194 ft / 974 m 252.33° 254.00° Asphalt 0 ft / 0 m 0 ft / 0 m

Map

Weather


0- 5 10 15 20 25 30 35+ Temperature / ° C

Clouds and Precipitation
Forecast for 2017-12-18 12:00 UTC. Updated 6 minutes ago

Ground ~20,000 ft ~40,000 ft Winds

METAR

KBFW 180912Z AUTO 00000KT 10SM OVC006 M03/M04 A2977 RMK AO2

TAF

Not found

Frequencies

Unicom 122.90 MHz CTAF
Warning: Do not use this data for real-world aviation or navigation. No guarantee of current accuracy is given.